createdAt,value
2017-10-10T00:00:10.812Z,38.00
2017-10-10T00:02:39.159Z,35.47
2017-10-10T00:05:07.469Z,37.93
2017-10-10T00:07:36.594Z,41.13
2017-10-10T00:10:04.942Z,37.90
2017-10-10T00:12:33.273Z,38.63
2017-10-10T00:15:01.606Z,38.97
2017-10-10T00:17:29.949Z,36.17
2017-10-10T00:19:58.267Z,37.83
2017-10-10T00:22:26.564Z,37.87
2017-10-10T00:24:54.933Z,37.87
2017-10-10T00:27:23.266Z,42.73
2017-10-10T00:29:51.631Z,39.37
2017-10-10T00:32:20.299Z,37.67
2017-10-10T00:34:48.643Z,40.00
2017-10-10T00:37:16.983Z,40.77
2017-10-10T00:39:45.344Z,40.50
2017-10-10T00:42:13.693Z,41.20
2017-10-10T00:44:42.055Z,40.83
2017-10-10T00:47:10.363Z,48.47
2017-10-10T00:49:38.686Z,40.47
2017-10-10T00:52:06.995Z,39.93
2017-10-10T00:54:35.332Z,39.83
2017-10-10T00:57:03.639Z,38.97
2017-10-10T00:59:31.944Z,39.57
2017-10-10T01:02:00.294Z,42.00
2017-10-10T01:04:29.378Z,42.20
2017-10-10T01:06:58.510Z,38.43
2017-10-10T01:09:26.828Z,42.10
2017-10-10T01:11:55.160Z,41.00
2017-10-10T01:14:23.482Z,38.67
2017-10-10T01:16:51.799Z,40.17
2017-10-10T01:19:20.092Z,38.70
2017-10-10T01:21:49.181Z,32.83
2017-10-10T01:24:18.249Z,34.10
2017-10-10T01:26:46.583Z,35.80
2017-10-10T01:29:14.874Z,38.73
2017-10-10T01:31:43.220Z,36.40
2017-10-10T01:34:11.536Z,34.10
2017-10-10T01:36:39.882Z,37.80
2017-10-10T01:39:08.197Z,35.83
2017-10-10T01:41:36.481Z,32.87
2017-10-10T01:44:04.836Z,34.60
2017-10-10T01:46:33.148Z,31.80
2017-10-10T01:49:02.262Z,30.67
2017-10-10T01:51:31.323Z,29.43
2017-10-10T01:54:00.427Z,31.87
2017-10-10T01:56:30.120Z,27.57
2017-10-10T01:58:59.247Z,29.80
2017-10-10T02:01:28.317Z,28.10
2017-10-10T02:03:56.664Z,27.83
2017-10-10T02:06:24.966Z,26.47
2017-10-10T02:08:53.268Z,27.20
2017-10-10T02:11:22.374Z,28.47
2017-10-10T02:13:50.686Z,27.20
2017-10-10T02:16:19.014Z,27.83
2017-10-10T02:18:47.316Z,27.20
2017-10-10T02:21:15.649Z,26.50
2017-10-10T02:23:43.956Z,22.83
2017-10-10T02:26:12.291Z,22.20
2017-10-10T02:28:40.617Z,24.30
2017-10-10T02:31:08.980Z,22.43
2017-10-10T02:33:38.061Z,21.37
2017-10-10T02:36:07.144Z,21.97
2017-10-10T02:38:35.499Z,22.77
2017-10-10T02:41:03.832Z,24.73
2017-10-10T02:43:32.165Z,22.20
2017-10-10T02:46:00.486Z,21.40
2017-10-10T02:48:28.848Z,24.17
2017-10-10T02:50:57.177Z,21.53
2017-10-10T02:53:25.534Z,21.83
2017-10-10T02:55:53.846Z,21.33
2017-10-10T02:58:22.198Z,21.53
2017-10-10T03:00:50.532Z,19.73
2017-10-10T03:03:18.887Z,21.70
2017-10-10T03:05:47.236Z,23.40
2017-10-10T03:08:15.602Z,20.30
2017-10-10T03:10:43.915Z,21.27
2017-10-10T03:13:12.224Z,23.60
2017-10-10T03:15:41.320Z,21.77
2017-10-10T03:18:09.644Z,22.60
2017-10-10T03:20:37.996Z,21.80
2017-10-10T03:23:07.446Z,21.17
2017-10-10T03:25:35.790Z,20.07
2017-10-10T03:28:04.101Z,23.43
2017-10-10T03:30:33.235Z,21.03
2017-10-10T03:33:01.592Z,19.70
2017-10-10T03:35:30.690Z,19.27
2017-10-10T03:37:59.000Z,18.30
2017-10-10T03:40:28.212Z,19.07
2017-10-10T03:42:56.494Z,20.07
2017-10-10T03:45:24.852Z,18.83
2017-10-10T03:47:53.165Z,20.13
2017-10-10T03:50:21.485Z,22.37
2017-10-10T03:52:50.583Z,17.77
2017-10-10T03:55:18.916Z,19.23
2017-10-10T03:57:47.236Z,18.10
2017-10-10T04:00:15.556Z,17.10
2017-10-10T04:02:44.690Z,16.57
2017-10-10T04:05:13.040Z,17.53
2017-10-10T04:07:41.365Z,18.00
2017-10-10T04:10:09.686Z,17.50
2017-10-10T04:12:38.031Z,18.30
2017-10-10T04:15:06.370Z,18.30
2017-10-10T04:17:35.499Z,16.53
2017-10-10T04:20:03.847Z,15.43
2017-10-10T04:22:32.196Z,14.33
2017-10-10T04:25:00.539Z,15.50
2017-10-10T04:27:28.874Z,15.77
2017-10-10T04:29:57.228Z,13.93
2017-10-10T04:32:26.334Z,14.60
2017-10-10T04:34:55.450Z,15.93
2017-10-10T04:37:24.555Z,15.57
2017-10-10T04:39:53.650Z,15.00
2017-10-10T04:42:22.095Z,14.17
2017-10-10T04:44:50.420Z,14.33
2017-10-10T04:47:18.719Z,14.30
2017-10-10T04:49:47.098Z,15.60
2017-10-10T04:52:15.411Z,15.87
2017-10-10T04:54:44.502Z,14.77
2017-10-10T04:57:13.606Z,18.60
2017-10-10T04:59:41.938Z,18.20
2017-10-10T05:02:10.274Z,16.60
2017-10-10T05:04:38.603Z,16.40
2017-10-10T05:07:06.956Z,17.63
2017-10-10T05:09:35.262Z,15.47
2017-10-10T05:12:03.595Z,15.60
2017-10-10T05:14:31.908Z,17.53
2017-10-10T05:17:00.250Z,15.40
2017-10-10T05:19:28.579Z,17.40
2017-10-10T05:21:58.648Z,16.97
2017-10-10T05:24:27.545Z,15.23
2017-10-10T05:26:55.875Z,17.37
2017-10-10T05:29:24.223Z,19.40
2017-10-10T05:31:52.534Z,18.50
2017-10-10T05:34:20.849Z,20.33
2017-10-10T05:36:49.194Z,18.73
2017-10-10T05:39:18.278Z,22.20
2017-10-10T05:41:46.606Z,23.80
2017-10-10T05:44:14.915Z,21.23
2017-10-10T05:46:43.246Z,24.17
2017-10-10T05:49:11.563Z,20.10
2017-10-10T05:51:39.907Z,21.97
2017-10-10T05:54:08.252Z,20.37
2017-10-10T05:56:36.599Z,22.97
2017-10-10T05:59:05.704Z,21.93
2017-10-10T06:01:34.004Z,19.93
2017-10-10T06:04:02.339Z,21.07
2017-10-10T06:06:30.683Z,24.20
2017-10-10T06:08:59.014Z,24.37
2017-10-10T06:11:27.322Z,21.73
2017-10-10T06:13:56.404Z,23.10
2017-10-10T06:16:24.750Z,24.73
2017-10-10T06:18:53.098Z,23.10
2017-10-10T06:21:21.424Z,24.17
2017-10-10T06:23:49.787Z,24.60
2017-10-10T06:26:18.107Z,23.63
2017-10-10T06:28:46.447Z,24.57
2017-10-10T06:31:15.548Z,27.20
2017-10-10T06:33:44.633Z,28.33
2017-10-10T06:36:12.975Z,27.70
2017-10-10T06:38:43.229Z,27.80
2017-10-10T06:41:11.574Z,26.80
2017-10-10T06:43:39.895Z,24.33
2017-10-10T06:46:09.015Z,26.00
2017-10-10T06:48:38.151Z,27.73
2017-10-10T06:51:06.493Z,27.07
2017-10-10T06:53:35.550Z,26.80
2017-10-10T06:56:05.056Z,25.97
2017-10-10T06:58:34.146Z,24.00
2017-10-10T07:01:02.516Z,27.37
2017-10-10T07:03:30.815Z,27.07
2017-10-10T07:05:59.128Z,26.63
2017-10-10T07:08:27.459Z,24.10
2017-10-10T07:10:56.567Z,25.90
2017-10-10T07:13:25.668Z,27.07
2017-10-10T07:15:54.735Z,25.10
2017-10-10T07:18:23.072Z,27.60
2017-10-10T07:20:51.384Z,27.53
2017-10-10T07:23:19.724Z,27.27
2017-10-10T07:25:48.038Z,30.80
2017-10-10T07:28:16.400Z,26.80
2017-10-10T07:30:44.719Z,28.57
2017-10-10T07:33:13.830Z,31.20
2017-10-10T07:35:42.180Z,28.93
2017-10-10T07:38:11.287Z,30.07
2017-10-10T07:40:39.650Z,31.23
2017-10-10T07:43:08.749Z,27.67
2017-10-10T07:45:37.079Z,29.30
2017-10-10T07:48:06.179Z,28.93
2017-10-10T07:50:34.522Z,30.07
2017-10-10T07:53:03.590Z,32.57
2017-10-10T07:55:31.937Z,33.17
2017-10-10T07:58:00.259Z,34.97
2017-10-10T08:00:28.638Z,32.00
2017-10-10T08:02:57.715Z,31.50
2017-10-10T08:05:26.125Z,31.80
2017-10-10T08:07:54.475Z,30.40
2017-10-10T08:10:23.628Z,28.90
2017-10-10T08:12:52.075Z,32.60
2017-10-10T08:15:20.354Z,32.83
2017-10-10T08:17:48.688Z,36.63
2017-10-10T08:20:17.902Z,32.00
2017-10-10T08:22:46.283Z,28.10
2017-10-10T08:25:15.374Z,32.97
2017-10-10T08:27:43.751Z,32.57
2017-10-10T08:30:12.836Z,35.67
2017-10-10T08:32:41.187Z,35.40
2017-10-10T08:35:09.528Z,34.77
2017-10-10T08:37:38.629Z,33.07
2017-10-10T08:40:06.954Z,33.30
2017-10-10T08:42:35.243Z,35.70
2017-10-10T08:45:03.563Z,33.70
2017-10-10T08:47:31.870Z,30.67
2017-10-10T08:50:00.203Z,36.33
2017-10-10T08:52:28.534Z,34.60
2017-10-10T08:54:57.804Z,32.60
2017-10-10T08:57:26.108Z,29.60
2017-10-10T08:59:54.446Z,30.93
2017-10-10T09:02:22.756Z,27.83
2017-10-10T09:04:51.110Z,30.67
2017-10-10T09:07:19.430Z,31.90
2017-10-10T09:09:47.807Z,27.60
2017-10-10T09:12:16.172Z,27.83
2017-10-10T09:14:44.495Z,30.00
2017-10-10T09:17:13.583Z,26.17
2017-10-10T09:19:42.655Z,29.53
2017-10-10T09:22:11.007Z,26.20
2017-10-10T09:24:40.180Z,29.20
2017-10-10T09:27:08.510Z,29.80
2017-10-10T09:29:36.822Z,32.10
2017-10-10T09:32:06.526Z,27.33
2017-10-10T09:34:34.705Z,27.17
2017-10-10T09:37:03.823Z,28.73
2017-10-10T09:39:32.116Z,29.07
2017-10-10T09:42:00.442Z,27.00
2017-10-10T09:44:29.540Z,27.37
2017-10-10T09:46:57.863Z,29.27
2017-10-10T09:49:26.232Z,30.30
2017-10-10T09:51:54.563Z,27.73
2017-10-10T09:54:22.868Z,24.87
2017-10-10T09:56:51.175Z,26.40
2017-10-10T09:59:19.522Z,26.70
2017-10-10T10:01:47.837Z,26.27
2017-10-10T10:04:16.659Z,28.37
2017-10-10T10:06:44.974Z,26.63
2017-10-10T10:09:13.284Z,26.70
2017-10-10T10:11:41.640Z,25.20
2017-10-10T10:14:09.942Z,23.80
2017-10-10T10:16:38.258Z,26.00
2017-10-10T10:19:06.559Z,24.33
2017-10-10T10:21:34.992Z,24.30
2017-10-10T10:24:03.356Z,22.57
2017-10-10T10:26:32.485Z,20.10
2017-10-10T10:29:00.790Z,20.30
2017-10-10T10:31:29.191Z,19.43
2017-10-10T10:33:57.530Z,20.40
2017-10-10T10:36:25.975Z,20.83
2017-10-10T10:38:54.303Z,20.57
2017-10-10T10:41:22.713Z,21.10
2017-10-10T10:43:51.023Z,19.77
2017-10-10T10:46:19.719Z,21.57
2017-10-10T10:48:48.123Z,21.47
2017-10-10T10:51:16.461Z,23.03
2017-10-10T10:53:45.020Z,17.87
2017-10-10T10:56:13.332Z,22.80
2017-10-10T10:58:41.694Z,18.10
2017-10-10T11:01:10.763Z,18.53
2017-10-10T11:03:39.897Z,39.40
2017-10-10T11:06:08.345Z,30.30
2017-10-10T11:08:36.726Z,48.90
2017-10-10T11:11:05.812Z,16.90
2017-10-10T11:13:34.164Z,19.27
2017-10-10T11:16:02.520Z,21.57
2017-10-10T11:18:30.837Z,30.07
2017-10-10T11:20:59.167Z,19.43
2017-10-10T11:23:27.469Z,21.87
2017-10-10T11:25:55.795Z,19.80
2017-10-10T11:28:24.101Z,18.00
2017-10-10T11:30:52.423Z,23.23
2017-10-10T11:33:20.727Z,19.30
2017-10-10T11:35:49.835Z,21.67
2017-10-10T11:38:18.135Z,18.20
2017-10-10T11:40:46.453Z,20.17
2017-10-10T11:43:15.562Z,18.37
2017-10-10T11:45:44.765Z,24.30
2017-10-10T11:48:13.864Z,18.37
2017-10-10T11:50:42.183Z,19.00
2017-10-10T11:53:10.546Z,17.63
2017-10-10T11:55:38.847Z,23.67
2017-10-10T11:58:07.168Z,22.87
2017-10-10T12:00:36.245Z,21.30
2017-10-10T12:03:04.608Z,18.50
2017-10-10T12:05:33.046Z,22.17
2017-10-10T12:08:01.372Z,22.30
2017-10-10T12:10:30.455Z,21.53
2017-10-10T12:12:59.596Z,20.97
2017-10-10T12:15:27.939Z,20.30
2017-10-10T12:17:57.081Z,19.57
2017-10-10T12:20:25.399Z,19.07
2017-10-10T12:22:53.719Z,28.00
2017-10-10T12:25:22.067Z,23.07
2017-10-10T12:27:52.174Z,26.90
2017-10-10T12:30:20.655Z,25.87
2017-10-10T12:32:48.979Z,26.17
2017-10-10T12:35:17.312Z,26.23
2017-10-10T12:37:46.412Z,23.20
2017-10-10T12:40:15.524Z,26.67
2017-10-10T12:42:44.600Z,25.93
2017-10-10T12:45:12.925Z,23.83
2017-10-10T12:47:41.243Z,28.43
2017-10-10T12:50:09.567Z,26.13
2017-10-10T12:52:38.653Z,28.97
2017-10-10T12:55:07.715Z,25.70
2017-10-10T12:57:36.799Z,30.10
2017-10-10T13:00:05.128Z,28.37
2017-10-10T13:02:34.215Z,27.53
2017-10-10T13:05:02.656Z,30.83
2017-10-10T13:07:30.998Z,23.93
2017-10-10T13:09:59.333Z,26.83
2017-10-10T13:12:28.444Z,25.33
2017-10-10T13:14:56.766Z,27.30
2017-10-10T13:17:25.103Z,27.50
2017-10-10T13:19:53.408Z,24.80
2017-10-10T13:22:21.751Z,24.80
2017-10-10T13:24:50.844Z,26.60
2017-10-10T13:27:19.905Z,30.50
2017-10-10T13:29:48.223Z,28.83
2017-10-10T13:32:16.534Z,29.10
2017-10-10T13:34:44.871Z,34.57
2017-10-10T13:39:47.947Z,35.30
2017-10-10T13:42:16.251Z,34.40
2017-10-10T13:44:44.610Z,33.20
2017-10-10T13:47:13.706Z,30.60
2017-10-10T13:49:42.047Z,29.60
2017-10-10T13:52:10.376Z,32.60
2017-10-10T13:54:39.452Z,31.87
2017-10-10T13:57:08.546Z,32.80
2017-10-10T13:59:36.843Z,28.67
2017-10-10T14:02:05.197Z,31.53
2017-10-10T14:04:33.499Z,32.47
2017-10-10T14:07:01.836Z,30.57
2017-10-10T14:09:30.140Z,29.20
2017-10-10T14:11:58.483Z,28.40
2017-10-10T14:14:26.810Z,28.60
2017-10-10T14:16:55.173Z,29.97
2017-10-10T14:19:23.476Z,27.17
2017-10-10T14:21:51.787Z,31.97
2017-10-10T14:24:20.152Z,30.93
2017-10-10T14:26:48.475Z,27.40
2017-10-10T14:29:17.578Z,27.40
2017-10-10T14:31:47.151Z,26.17
2017-10-10T14:34:15.554Z,29.97
2017-10-10T14:36:44.091Z,27.80
2017-10-10T14:39:13.343Z,27.63
2017-10-10T14:41:41.727Z,32.27
2017-10-10T14:44:10.832Z,28.30
2017-10-10T14:46:39.142Z,27.77
2017-10-10T14:49:07.483Z,26.23
2017-10-10T14:51:35.834Z,27.30
2017-10-10T14:54:04.911Z,31.03
2017-10-10T14:56:33.251Z,29.17
2017-10-10T14:59:02.217Z,29.37
2017-10-10T15:01:30.660Z,27.07
2017-10-10T15:03:58.979Z,26.57
2017-10-10T15:06:27.320Z,28.10
2017-10-10T15:08:55.625Z,27.00
2017-10-10T15:11:23.936Z,26.90
2017-10-10T15:13:52.244Z,27.73
2017-10-10T15:16:20.586Z,31.20
2017-10-10T15:18:48.940Z,33.73
2017-10-10T15:21:17.652Z,32.10
2017-10-10T15:23:46.010Z,32.33
2017-10-10T15:26:14.324Z,34.30
2017-10-10T15:28:42.681Z,31.60
2017-10-10T15:31:11.011Z,33.73
2017-10-10T15:33:39.507Z,33.00
2017-10-10T15:36:08.579Z,31.70
2017-10-10T15:38:36.962Z,32.10
2017-10-10T15:41:05.259Z,28.50
2017-10-10T15:43:33.677Z,27.93
2017-10-10T15:46:03.891Z,30.03
2017-10-10T15:48:33.129Z,31.10
2017-10-10T15:51:01.498Z,29.93
2017-10-10T15:53:29.834Z,31.00
2017-10-10T15:55:58.150Z,32.67
2017-10-10T15:58:26.491Z,30.87
2017-10-10T16:00:54.842Z,30.20
2017-10-10T16:03:23.163Z,27.60
2017-10-10T16:05:51.604Z,27.83
2017-10-10T16:08:19.935Z,27.20
2017-10-10T16:10:48.289Z,27.07
2017-10-10T16:13:19.520Z,29.30
2017-10-10T16:15:48.050Z,28.63
2017-10-10T16:18:16.454Z,27.40
2017-10-10T16:20:44.871Z,28.97
2017-10-10T16:23:13.792Z,28.50
2017-10-10T16:25:42.424Z,27.10
2017-10-10T16:28:10.722Z,29.20
2017-10-10T16:30:39.024Z,26.60
2017-10-10T16:33:07.340Z,29.13
2017-10-10T16:35:35.772Z,27.47
2017-10-10T16:38:04.098Z,28.70
2017-10-10T16:40:33.164Z,38.53
2017-10-10T16:43:01.467Z,30.17
2017-10-10T16:45:30.529Z,29.47
2017-10-10T16:47:58.863Z,27.00
2017-10-10T16:50:27.162Z,26.93
2017-10-10T16:52:55.480Z,26.80
2017-10-10T16:55:24.564Z,28.73
2017-10-10T16:57:53.687Z,28.23
2017-10-10T17:00:22.027Z,27.10
2017-10-10T17:02:50.392Z,27.90
2017-10-10T17:05:18.745Z,29.37
2017-10-10T17:07:47.107Z,27.77
2017-10-10T17:10:15.442Z,31.40
2017-10-10T17:12:44.554Z,30.00
2017-10-10T17:15:13.680Z,29.07
2017-10-10T17:17:42.853Z,28.17
2017-10-10T17:20:11.957Z,25.83
2017-10-10T17:25:14.958Z,27.80
2017-10-10T17:27:43.287Z,25.73
2017-10-10T17:30:11.652Z,26.93
2017-10-10T17:32:39.980Z,28.50
2017-10-10T17:35:08.379Z,28.53
2017-10-10T17:37:36.727Z,29.27
2017-10-10T17:40:05.804Z,28.47
2017-10-10T17:42:34.152Z,31.87
2017-10-10T17:45:03.343Z,28.57
2017-10-10T17:47:32.595Z,29.00
2017-10-10T17:50:00.954Z,45.80
2017-10-10T17:52:29.304Z,29.00
2017-10-10T17:54:57.644Z,28.70
2017-10-10T17:57:26.748Z,27.80
2017-10-10T17:59:55.080Z,33.07
2017-10-10T18:02:23.391Z,30.70
2017-10-10T18:04:52.713Z,28.33
2017-10-10T18:07:21.022Z,28.13
2017-10-10T18:09:50.510Z,31.13
2017-10-10T18:12:18.823Z,29.07
2017-10-10T18:14:47.161Z,27.57
2017-10-10T18:17:15.475Z,30.77
2017-10-10T18:19:44.573Z,31.30
2017-10-10T18:22:12.900Z,27.23
2017-10-10T18:24:41.193Z,32.07
2017-10-10T18:27:09.517Z,27.43
2017-10-10T18:29:38.276Z,25.13
2017-10-10T18:32:06.587Z,25.73
2017-10-10T18:34:35.655Z,25.33
2017-10-10T18:37:04.774Z,27.13
2017-10-10T18:39:33.095Z,29.30
2017-10-10T18:42:01.449Z,29.30
2017-10-10T18:44:29.819Z,30.27
2017-10-10T18:46:58.206Z,34.43
2017-10-10T18:49:27.350Z,32.33
2017-10-10T18:51:55.721Z,31.40
2017-10-10T18:54:24.050Z,31.70
2017-10-10T18:56:52.344Z,22.20
2017-10-10T18:59:21.405Z,27.13
2017-10-10T19:01:49.779Z,25.53
2017-10-10T19:04:18.170Z,26.27
2017-10-10T19:06:46.520Z,23.60
2017-10-10T19:09:15.640Z,20.20
2017-10-10T19:11:44.366Z,20.73
2017-10-10T19:14:13.460Z,21.20
2017-10-10T19:16:41.849Z,22.83
2017-10-10T19:19:10.207Z,21.93
2017-10-10T19:21:38.807Z,19.33
2017-10-10T19:24:07.117Z,18.17
2017-10-10T19:26:35.488Z,17.40
2017-10-10T19:29:04.570Z,19.17
2017-10-10T19:31:32.927Z,18.47
2017-10-10T19:34:01.283Z,16.27
2017-10-10T19:36:29.609Z,17.43
2017-10-10T19:38:57.950Z,19.37
2017-10-10T19:41:26.276Z,16.50
2017-10-10T19:43:55.373Z,14.40
2017-10-10T19:46:24.522Z,15.70
2017-10-10T19:48:52.866Z,13.60
2017-10-10T19:51:21.302Z,14.73
2017-10-10T19:53:49.634Z,16.53
2017-10-10T19:56:17.974Z,15.10
2017-10-10T19:58:46.314Z,14.00
2017-10-10T20:01:14.629Z,14.17
2017-10-10T20:03:43.781Z,14.40
2017-10-10T20:06:12.927Z,13.90
2017-10-10T20:08:41.329Z,16.77
2017-10-10T20:11:09.674Z,23.17
2017-10-10T20:13:38.763Z,20.50
2017-10-10T20:16:07.137Z,16.40
2017-10-10T20:18:36.243Z,15.40
2017-10-10T20:21:05.362Z,15.13
2017-10-10T20:23:33.687Z,17.00
2017-10-10T20:26:02.052Z,13.93
2017-10-10T20:28:30.440Z,17.90
2017-10-10T20:30:58.770Z,21.57
2017-10-10T20:33:27.119Z,20.70
2017-10-10T20:35:56.213Z,15.60
2017-10-10T20:38:24.556Z,18.20
2017-10-10T20:40:52.888Z,20.47
2017-10-10T20:43:22.040Z,16.60
2017-10-10T20:45:50.364Z,17.80
2017-10-10T20:48:18.726Z,17.30
2017-10-10T20:50:47.104Z,16.63
2017-10-10T20:53:15.476Z,16.10
2017-10-10T20:55:43.799Z,16.23
2017-10-10T20:58:12.167Z,16.87
2017-10-10T21:00:40.501Z,19.90
2017-10-10T21:03:09.643Z,16.97
2017-10-10T21:05:37.954Z,17.83
2017-10-10T21:08:06.296Z,19.60
2017-10-10T21:10:34.613Z,17.77
2017-10-10T21:13:02.933Z,21.43
2017-10-10T21:15:31.285Z,21.23
2017-10-10T21:17:59.632Z,21.97
2017-10-10T21:20:28.049Z,21.10
2017-10-10T21:22:57.133Z,24.00
2017-10-10T21:25:26.260Z,24.20
2017-10-10T21:27:55.337Z,24.63
2017-10-10T21:30:24.435Z,29.80
2017-10-10T21:32:53.532Z,26.27
2017-10-10T21:35:21.876Z,26.17
2017-10-10T21:37:50.189Z,23.37
2017-10-10T21:40:18.515Z,25.37
2017-10-10T21:42:46.856Z,24.53
2017-10-10T21:45:15.178Z,26.30
2017-10-10T21:47:43.506Z,24.57
2017-10-10T21:50:12.579Z,26.73
2017-10-10T21:52:41.681Z,25.67
2017-10-10T21:55:10.771Z,26.30
2017-10-10T21:57:39.135Z,25.30
2017-10-10T22:00:08.223Z,25.87
2017-10-10T22:02:36.554Z,26.27
2017-10-10T22:05:04.883Z,27.77
2017-10-10T22:07:33.400Z,26.80
2017-10-10T22:10:01.714Z,26.83
2017-10-10T22:12:30.016Z,26.07
2017-10-10T22:14:59.123Z,26.90
2017-10-10T22:17:28.232Z,24.90
2017-10-10T22:19:56.599Z,27.50
2017-10-10T22:22:24.939Z,25.83
2017-10-10T22:24:53.268Z,25.03
2017-10-10T22:27:21.591Z,26.10
2017-10-10T22:29:49.946Z,27.63
2017-10-10T22:32:18.273Z,25.90
2017-10-10T22:34:46.599Z,27.87
2017-10-10T22:37:14.925Z,28.23
2017-10-10T22:39:45.126Z,26.20
2017-10-10T22:42:13.462Z,27.07
2017-10-10T22:44:41.794Z,27.00
2017-10-10T22:47:10.913Z,27.67
2017-10-10T22:49:39.990Z,27.03
2017-10-10T22:52:08.293Z,26.50
2017-10-10T22:54:37.363Z,26.10
2017-10-10T22:57:05.714Z,27.23
2017-10-10T22:59:34.051Z,27.47
2017-10-10T23:02:03.209Z,31.97
2017-10-10T23:04:31.531Z,29.23
2017-10-10T23:06:59.843Z,27.87
2017-10-10T23:09:28.179Z,29.13
2017-10-10T23:11:56.509Z,30.80
2017-10-10T23:14:24.852Z,29.50
2017-10-10T23:16:53.140Z,27.77
2017-10-10T23:19:21.464Z,28.40
2017-10-10T23:21:49.813Z,30.67
2017-10-10T23:24:18.146Z,27.50
2017-10-10T23:26:46.450Z,27.97
2017-10-10T23:29:14.776Z,26.63
2017-10-10T23:31:43.070Z,29.30
2017-10-10T23:34:11.427Z,25.27
2017-10-10T23:36:39.749Z,28.23
2017-10-10T23:39:08.061Z,28.30
2017-10-10T23:41:36.387Z,25.90
2017-10-10T23:44:04.711Z,26.73
2017-10-10T23:46:33.843Z,25.43
2017-10-10T23:49:02.147Z,24.23
2017-10-10T23:51:30.473Z,23.50
2017-10-10T23:53:59.558Z,25.63
2017-10-10T23:56:27.900Z,24.70
2017-10-10T23:58:56.226Z,25.00
